Terminal Aerodrome Forecast
Issued by NWS Wilmington, OH

Current Version | Previous Version | Graphics & Text | Print | Product List | Glossary On
Versions: 1 2 3 4 5 6 7 8 9 10 11 12 13 14 15 16 17 18
000
FTUS41 KILN 150300 AAA
TAFCMH
TAF AMD
KCMH 150342Z 1504/1524 33016G24KT 4SM -RA BR OVC008
     FM150900 33018G26KT 1SM -SN OVC006
     FM151100 33018G26KT 4SM -SN OVC008
     FM151400 32018G26KT P6SM OVC010
     FM151800 31016G24KT P6SM BKN025
     FM152000 31016G24KT P6SM BKN035=

USA.gov is the U.S. government's official web portal to all federal, state and local government web resources and services.